createdAt,value
2023-03-25T00:01:26.370Z,8.48
2023-03-25T00:03:54.647Z,8.43
2023-03-25T00:06:24.975Z,8.31
2023-03-25T00:08:53.831Z,8.25
2023-03-25T00:11:23.302Z,8.27
2023-03-25T00:13:51.967Z,8.19
2023-03-25T00:16:20.757Z,8.18
2023-03-25T00:18:50.145Z,8.12
2023-03-25T00:21:19.145Z,8.02
2023-03-25T00:23:49.906Z,7.99
2023-03-25T00:26:18.594Z,7.96
2023-03-25T00:28:47.070Z,7.96
2023-03-25T00:31:17.200Z,8.12
2023-03-25T00:33:46.103Z,8.12
2023-03-25T00:36:15.753Z,8.14
2023-03-25T00:38:45.885Z,8.06
2023-03-25T00:41:23.445Z,8.06
2023-03-25T00:43:54.867Z,8.02
2023-03-25T00:46:24.521Z,8.08
2023-03-25T00:48:53.948Z,8.07
2023-03-25T00:51:23.499Z,8.10
2023-03-25T00:53:55.665Z,8.15
2023-03-25T00:56:26.552Z,8.21
2023-03-25T00:58:56.382Z,8.21
2023-03-25T01:01:27.596Z,8.13
2023-03-25T01:04:00.595Z,8.04
2023-03-25T01:06:32.616Z,7.91
2023-03-25T01:09:02.536Z,7.90
2023-03-25T01:11:35.747Z,7.86
2023-03-25T01:14:06.624Z,7.73
2023-03-25T01:16:35.710Z,7.61
2023-03-25T01:19:04.580Z,7.58
2023-03-25T01:21:36.469Z,7.55
2023-03-25T01:24:05.139Z,7.45
2023-03-25T01:26:35.735Z,7.46
2023-03-25T01:29:04.748Z,7.28
2023-03-25T01:31:34.952Z,7.26
2023-03-25T01:34:04.408Z,7.21
2023-03-25T01:36:33.838Z,7.05
2023-03-25T01:39:06.287Z,7.09
2023-03-25T01:41:49.069Z,7.14
2023-03-25T01:44:56.751Z,7.10
2023-03-25T01:47:26.875Z,7.09
2023-03-25T01:49:55.702Z,6.92
2023-03-25T01:52:29.957Z,7.05
2023-03-25T01:55:00.782Z,7.02
2023-03-25T01:57:32.760Z,7.17
2023-03-25T02:00:03.786Z,7.12
2023-03-25T02:02:36.973Z,7.15
2023-03-25T02:05:10.923Z,7.17
2023-03-25T02:07:43.129Z,7.15
2023-03-25T02:10:13.439Z,7.12
2023-03-25T02:12:45.918Z,7.10
2023-03-25T02:15:18.378Z,7.14
2023-03-25T02:18:02.602Z,7.20
2023-03-25T02:20:59.305Z,7.20
2023-03-25T02:24:01.059Z,7.34
2023-03-25T02:27:00.254Z,7.20
2023-03-25T02:29:49.803Z,7.25
2023-03-25T02:32:31.668Z,7.23
2023-03-25T02:35:33.686Z,7.27
2023-03-25T02:38:38.554Z,7.26
2023-03-25T02:41:14.051Z,7.22
2023-03-25T02:43:48.976Z,7.27
2023-03-25T02:46:20.274Z,7.29
2023-03-25T02:48:57.188Z,7.34
2023-03-25T02:51:30.895Z,7.46
2023-03-25T02:54:06.880Z,7.29
2023-03-25T02:56:38.554Z,7.22
2023-03-25T02:59:10.103Z,7.28
2023-03-25T03:01:39.455Z,7.30
2023-03-25T03:04:08.345Z,7.23
2023-03-25T03:06:42.396Z,7.14
2023-03-25T03:09:25.594Z,7.15
2023-03-25T03:12:06.300Z,7.01
2023-03-25T03:14:46.198Z,7.03
2023-03-25T03:17:22.549Z,7.04
2023-03-25T03:19:55.200Z,7.04
2023-03-25T03:22:39.469Z,7.04
2023-03-25T03:25:22.229Z,7.15
2023-03-25T03:27:56.620Z,7.15
2023-03-25T03:30:33.806Z,7.15
2023-03-25T03:33:10.306Z,7.08
2023-03-25T03:35:44.761Z,7.13
2023-03-25T03:38:17.071Z,7.13
2023-03-25T03:40:52.096Z,7.09
2023-03-25T03:43:27.032Z,7.13
2023-03-25T03:46:00.358Z,7.00
2023-03-25T03:48:32.732Z,7.18
2023-03-25T03:51:08.122Z,7.20
2023-03-25T03:53:41.142Z,7.18
2023-03-25T03:56:14.334Z,7.17
2023-03-25T03:58:44.914Z,7.15
2023-03-25T04:01:18.208Z,7.22
2023-03-25T04:03:51.241Z,7.20
2023-03-25T04:06:26.702Z,7.19
2023-03-25T04:09:00.409Z,7.26
2023-03-25T04:11:37.451Z,7.28
2023-03-25T04:14:07.956Z,7.31
2023-03-25T04:16:38.175Z,7.18
2023-03-25T04:19:07.358Z,6.99
2023-03-25T04:21:36.793Z,6.80
2023-03-25T04:24:08.558Z,6.70
2023-03-25T04:26:38.516Z,6.58
2023-03-25T04:29:07.724Z,6.52
2023-03-25T04:31:36.283Z,6.30
2023-03-25T04:34:05.782Z,6.38
2023-03-25T04:36:38.064Z,6.24
2023-03-25T04:39:07.490Z,6.26
2023-03-25T04:41:35.833Z,6.19
2023-03-25T04:44:08.254Z,6.17
2023-03-25T04:46:37.775Z,6.16
2023-03-25T04:49:14.208Z,6.19
2023-03-25T04:51:45.171Z,6.32
2023-03-25T04:54:13.889Z,6.20
2023-03-25T04:56:43.478Z,6.15
2023-03-25T04:59:13.195Z,6.16
2023-03-25T05:01:42.525Z,6.27
2023-03-25T05:04:12.588Z,6.05
2023-03-25T05:06:44.357Z,6.11
2023-03-25T05:09:16.759Z,6.06
2023-03-25T05:11:45.140Z,5.94
2023-03-25T05:14:17.964Z,5.97
2023-03-25T05:16:47.459Z,6.04
2023-03-25T05:19:19.037Z,6.15
2023-03-25T05:21:48.702Z,6.10
2023-03-25T05:24:17.028Z,6.04
2023-03-25T05:26:45.775Z,6.11
2023-03-25T05:29:16.738Z,6.20
2023-03-25T05:31:47.217Z,6.19
2023-03-25T05:34:17.393Z,6.21
2023-03-25T05:36:45.932Z,6.18
2023-03-25T05:39:14.509Z,6.16
2023-03-25T05:41:45.834Z,6.15
2023-03-25T05:44:19.367Z,6.23
2023-03-25T05:46:47.882Z,6.34
2023-03-25T05:49:16.324Z,6.36
2023-03-25T05:51:45.322Z,6.20
2023-03-25T05:54:14.315Z,6.32
2023-03-25T05:56:44.096Z,6.40
2023-03-25T05:59:14.456Z,6.33
2023-03-25T06:01:45.910Z,6.20
2023-03-25T06:04:17.061Z,6.38
2023-03-25T06:06:45.891Z,6.33
2023-03-25T06:09:14.781Z,6.35
2023-03-25T06:11:43.783Z,6.39
2023-03-25T06:14:12.318Z,6.38
2023-03-25T06:16:41.181Z,6.47
2023-03-25T06:19:10.892Z,6.52
2023-03-25T06:21:39.434Z,6.48
2023-03-25T06:24:08.893Z,6.57
2023-03-25T06:26:37.451Z,6.59
2023-03-25T06:29:07.765Z,6.63
2023-03-25T06:31:36.190Z,6.57
2023-03-25T06:34:05.637Z,6.64
2023-03-25T06:36:36.038Z,6.63
2023-03-25T06:39:06.060Z,6.59
2023-03-25T06:41:36.108Z,6.67
2023-03-25T06:44:05.536Z,6.73
2023-03-25T06:46:33.827Z,6.82
2023-03-25T06:49:02.308Z,6.93
2023-03-25T06:51:30.993Z,7.01
2023-03-25T06:54:01.135Z,7.13
2023-03-25T06:56:29.517Z,7.12
2023-03-25T06:58:58.553Z,7.18
2023-03-25T07:01:27.049Z,7.23
2023-03-25T07:03:55.722Z,7.31
2023-03-25T07:06:25.218Z,7.41
2023-03-25T07:08:53.825Z,7.41
2023-03-25T07:11:28.458Z,7.56
2023-03-25T07:13:57.312Z,7.66
2023-03-25T07:16:27.108Z,7.59
2023-03-25T07:18:56.974Z,7.53
2023-03-25T07:21:25.573Z,7.53
2023-03-25T07:23:55.457Z,7.68
2023-03-25T07:26:25.255Z,7.88
2023-03-25T07:28:53.810Z,7.88
2023-03-25T07:31:22.316Z,7.91
2023-03-25T07:33:52.087Z,7.82
2023-03-25T07:36:22.249Z,7.79
2023-03-25T07:38:51.110Z,7.64
2023-03-25T07:41:19.529Z,7.63
2023-03-25T07:43:49.465Z,7.81
2023-03-25T07:46:17.871Z,7.95
2023-03-25T07:48:47.306Z,7.91
2023-03-25T07:51:16.080Z,7.79
2023-03-25T07:53:45.508Z,7.63
2023-03-25T07:56:14.476Z,7.82
2023-03-25T07:58:44.528Z,8.00
2023-03-25T08:01:14.717Z,7.99
2023-03-25T08:03:43.482Z,8.15
2023-03-25T08:06:12.199Z,8.11
2023-03-25T08:08:40.673Z,8.31
2023-03-25T08:11:10.309Z,8.42
2023-03-25T08:13:39.261Z,8.44
2023-03-25T08:16:15.041Z,8.43
2023-03-25T08:18:45.343Z,8.69
2023-03-25T08:21:14.411Z,8.78
2023-03-25T08:23:44.759Z,9.02
2023-03-25T08:26:13.304Z,9.13
2023-03-25T08:28:41.908Z,9.07
2023-03-25T08:31:12.132Z,9.01
2023-03-25T08:33:43.220Z,8.87
2023-03-25T08:36:14.556Z,8.73
2023-03-25T08:38:43.571Z,8.75
2023-03-25T08:41:12.044Z,8.58
2023-03-25T08:43:40.622Z,8.74
2023-03-25T08:46:09.712Z,8.98
2023-03-25T08:48:38.810Z,9.22
2023-03-25T08:51:10.134Z,9.30
2023-03-25T08:53:39.265Z,9.27
2023-03-25T08:56:11.534Z,9.33
2023-03-25T08:58:40.451Z,9.48
2023-03-25T09:01:09.739Z,9.51
2023-03-25T09:03:39.045Z,9.70
2023-03-25T09:06:11.050Z,9.74
2023-03-25T09:08:39.730Z,9.72
2023-03-25T09:11:08.692Z,9.73
2023-03-25T09:13:37.041Z,9.59
2023-03-25T09:16:06.024Z,9.51
2023-03-25T09:18:36.969Z,9.57
2023-03-25T09:21:06.488Z,9.41
2023-03-25T09:23:36.530Z,9.23
2023-03-25T09:26:05.839Z,9.39
2023-03-25T09:28:34.921Z,9.45
2023-03-25T09:31:05.169Z,9.23
2023-03-25T09:33:33.672Z,9.37
2023-03-25T09:36:02.478Z,9.63
2023-03-25T09:38:31.518Z,9.78
2023-03-25T09:41:07.471Z,9.92
2023-03-25T09:43:49.671Z,10.38
2023-03-25T09:46:18.234Z,10.52
2023-03-25T09:48:49.201Z,10.58
2023-03-25T09:51:23.422Z,10.49
2023-03-25T09:53:58.642Z,10.39
2023-03-25T09:56:32.418Z,10.45
2023-03-25T09:59:07.096Z,10.65
2023-03-25T10:01:45.124Z,10.66
2023-03-25T10:04:34.704Z,10.77
2023-03-25T10:07:11.946Z,10.59
2023-03-25T10:09:48.079Z,10.37
2023-03-25T10:12:35.208Z,10.42
2023-03-25T10:15:19.245Z,10.63
2023-03-25T10:18:00.520Z,10.57
2023-03-25T10:20:44.019Z,10.66
2023-03-25T10:23:22.604Z,10.58
2023-03-25T10:25:57.513Z,10.53
2023-03-25T10:28:33.373Z,10.44
2023-03-25T10:31:03.940Z,10.62
2023-03-25T10:33:37.670Z,10.67
2023-03-25T10:36:09.905Z,10.57
2023-03-25T10:38:40.099Z,10.49
2023-03-25T10:41:22.540Z,10.64
2023-03-25T10:43:53.411Z,10.58
2023-03-25T10:46:29.790Z,10.64
2023-03-25T10:48:59.656Z,10.44
2023-03-25T10:51:31.223Z,10.36
2023-03-25T10:54:00.222Z,10.32
2023-03-25T10:56:32.957Z,10.28
2023-03-25T10:59:09.380Z,10.23
2023-03-25T11:01:40.630Z,10.17
2023-03-25T11:04:12.207Z,10.06
2023-03-25T11:06:43.521Z,9.68
2023-03-25T11:09:18.993Z,9.29
2023-03-25T11:11:48.681Z,8.96
2023-03-25T11:14:23.648Z,8.22
2023-03-25T11:16:58.033Z,7.59
2023-03-25T11:19:29.212Z,6.90
2023-03-25T11:22:02.582Z,6.10
2023-03-25T11:24:34.720Z,5.85
2023-03-25T11:27:04.387Z,5.72
2023-03-25T11:29:35.730Z,5.78
2023-03-25T11:32:09.235Z,5.92
2023-03-25T11:34:42.499Z,6.16
2023-03-25T11:37:19.074Z,6.50
2023-03-25T11:39:55.471Z,6.94
2023-03-25T11:42:33.698Z,7.10
2023-03-25T11:45:04.564Z,7.31
2023-03-25T11:47:35.708Z,7.19
2023-03-25T11:50:06.441Z,7.41
2023-03-25T11:52:43.142Z,7.46
2023-03-25T11:55:19.302Z,7.64
2023-03-25T11:57:51.163Z,7.85
2023-03-25T12:00:32.353Z,8.13
2023-03-25T12:03:03.576Z,8.45
2023-03-25T12:05:33.638Z,8.66
2023-03-25T12:08:06.655Z,8.76
2023-03-25T12:10:49.540Z,8.91
2023-03-25T12:13:28.229Z,8.76
2023-03-25T12:16:11.390Z,8.79
2023-03-25T12:18:52.765Z,8.63
2023-03-25T12:21:40.051Z,8.77
2023-03-25T12:24:28.090Z,8.80
2023-03-25T12:27:08.621Z,8.80
2023-03-25T12:29:47.032Z,8.85
2023-03-25T12:32:36.390Z,8.71
2023-03-25T12:35:23.310Z,8.68
2023-03-25T12:38:05.566Z,8.88
2023-03-25T12:40:48.494Z,8.87
2023-03-25T12:43:22.817Z,8.99
2023-03-25T12:46:10.813Z,9.28
2023-03-25T12:49:10.405Z,9.34
2023-03-25T12:51:49.657Z,9.36
2023-03-25T12:54:37.587Z,9.74
2023-03-25T12:57:19.123Z,10.16
2023-03-25T13:00:20.232Z,10.11
2023-03-25T13:03:44.372Z,9.99
2023-03-25T13:06:23.556Z,9.78
2023-03-25T13:08:58.376Z,9.67
2023-03-25T13:11:33.074Z,9.63
2023-03-25T13:14:11.193Z,9.47
2023-03-25T13:16:42.043Z,8.33
2023-03-25T13:19:16.876Z,7.51
2023-03-25T13:21:52.839Z,7.22
2023-03-25T13:24:25.585Z,7.37
2023-03-25T13:26:57.443Z,7.52
2023-03-25T13:29:34.648Z,7.71
2023-03-25T13:32:07.398Z,7.95
2023-03-25T13:34:44.884Z,7.94
2023-03-25T13:37:24.346Z,8.01
2023-03-25T13:40:07.900Z,8.07
2023-03-25T13:42:44.751Z,8.12
2023-03-25T13:45:18.935Z,8.17
2023-03-25T13:47:54.246Z,8.24
2023-03-25T13:50:29.151Z,8.31
2023-03-25T13:53:04.875Z,8.44
2023-03-25T13:55:39.140Z,8.72
2023-03-25T13:58:43.942Z,8.99
2023-03-25T14:01:44.096Z,9.32
2023-03-25T14:04:32.856Z,9.42
2023-03-25T14:07:24.786Z,9.14
2023-03-25T14:10:24.794Z,8.86
2023-03-25T14:12:58.077Z,7.44
2023-03-25T14:15:31.417Z,7.24
2023-03-25T14:18:01.413Z,7.39
2023-03-25T14:20:36.147Z,7.44
2023-03-25T14:23:06.594Z,7.52
2023-03-25T14:25:40.564Z,7.50
2023-03-25T14:28:14.520Z,7.84
2023-03-25T14:30:43.471Z,8.07
2023-03-25T14:33:13.673Z,8.31
2023-03-25T14:36:00.199Z,8.49
2023-03-25T14:38:53.351Z,8.51
2023-03-25T14:42:03.085Z,8.48
2023-03-25T14:44:36.302Z,8.58
2023-03-25T14:47:32.292Z,8.67
2023-03-25T14:50:07.762Z,8.70
2023-03-25T14:52:43.335Z,8.74
2023-03-25T14:55:19.963Z,8.95
2023-03-25T14:57:51.555Z,9.14
2023-03-25T15:00:28.956Z,9.18
2023-03-25T15:03:04.262Z,9.10
2023-03-25T15:05:35.845Z,9.03
2023-03-25T15:08:17.003Z,9.07
2023-03-25T15:10:50.203Z,9.12
2023-03-25T15:13:26.200Z,9.64
2023-03-25T15:16:01.991Z,10.08
2023-03-25T15:19:10.207Z,10.35
2023-03-25T15:22:11.309Z,10.44
2023-03-25T15:24:41.416Z,10.44
2023-03-25T15:27:18.049Z,10.41
2023-03-25T15:29:59.794Z,10.36
2023-03-25T15:32:45.471Z,10.53
2023-03-25T15:35:37.838Z,10.40
2023-03-25T15:38:37.680Z,10.31
2023-03-25T15:41:42.082Z,10.08
2023-03-25T15:44:37.622Z,9.88
2023-03-25T15:47:21.749Z,9.73
2023-03-25T15:50:28.825Z,9.72
2023-03-25T15:53:41.890Z,9.61
2023-03-25T15:56:13.773Z,9.70
2023-03-25T15:58:48.834Z,9.60
2023-03-25T16:01:26.158Z,9.58
2023-03-25T16:04:03.365Z,9.71
2023-03-25T16:06:36.318Z,9.68
2023-03-25T16:09:05.276Z,9.71
2023-03-25T16:11:33.904Z,9.83
2023-03-25T16:14:05.395Z,9.90
2023-03-25T16:16:36.156Z,9.82
2023-03-25T16:19:10.087Z,9.87
2023-03-25T16:21:39.703Z,9.86
2023-03-25T16:24:11.192Z,9.90
2023-03-25T16:26:42.933Z,9.96
2023-03-25T16:29:18.336Z,9.87
2023-03-25T16:31:58.256Z,9.90
2023-03-25T16:34:31.675Z,9.92
2023-03-25T16:37:01.680Z,9.79
2023-03-25T16:39:34.681Z,9.81
2023-03-25T16:42:07.645Z,9.87
2023-03-25T16:44:36.792Z,9.95
2023-03-25T16:47:05.774Z,10.11
2023-03-25T16:49:38.590Z,10.27
2023-03-25T16:52:14.430Z,10.36
2023-03-25T16:54:48.002Z,10.47
2023-03-25T16:57:20.236Z,10.21
2023-03-25T17:00:01.630Z,10.13
2023-03-25T17:02:32.479Z,9.99
2023-03-25T17:05:16.448Z,9.90
2023-03-25T17:07:45.527Z,9.83
2023-03-25T17:10:24.391Z,9.69
2023-03-25T17:12:58.093Z,9.60
2023-03-25T17:15:29.425Z,9.46
2023-03-25T17:18:01.429Z,9.44
2023-03-25T17:20:36.292Z,9.38
2023-03-25T17:23:09.310Z,9.30
2023-03-25T17:25:50.402Z,9.11
2023-03-25T17:28:29.309Z,9.09
2023-03-25T17:30:58.715Z,9.05
2023-03-25T17:33:35.927Z,8.94
2023-03-25T17:36:11.263Z,8.95
2023-03-25T17:38:45.480Z,8.86
2023-03-25T17:41:16.215Z,8.89
2023-03-25T17:43:48.449Z,8.84
2023-03-25T17:46:21.422Z,8.84
2023-03-25T17:48:51.348Z,8.52
2023-03-25T17:51:23.001Z,8.58
2023-03-25T17:53:53.354Z,8.46
2023-03-25T17:56:25.735Z,8.57
2023-03-25T17:58:59.441Z,8.41
2023-03-25T18:01:29.383Z,8.35
2023-03-25T18:03:58.473Z,8.19
2023-03-25T18:06:28.703Z,8.10
2023-03-25T18:08:57.964Z,8.00
2023-03-25T18:11:26.858Z,7.79
2023-03-25T18:13:56.457Z,7.83
2023-03-25T18:16:26.418Z,7.76
2023-03-25T18:18:56.159Z,7.67
2023-03-25T18:21:28.112Z,7.46
2023-03-25T18:23:58.521Z,7.46
2023-03-25T18:26:28.840Z,7.39
2023-03-25T18:28:58.018Z,7.28
2023-03-25T18:31:27.900Z,7.22
2023-03-25T18:33:57.271Z,7.19
2023-03-25T18:36:26.304Z,7.19
2023-03-25T18:38:55.535Z,7.14
2023-03-25T18:41:26.989Z,7.07
2023-03-25T18:43:56.088Z,7.20
2023-03-25T18:46:24.795Z,7.27
2023-03-25T18:48:53.742Z,7.26
2023-03-25T18:51:22.317Z,7.16
2023-03-25T18:53:51.697Z,7.35
2023-03-25T18:56:21.078Z,7.24
2023-03-25T18:58:51.611Z,7.19
2023-03-25T19:01:22.199Z,7.07
2023-03-25T19:03:51.656Z,7.10
2023-03-25T19:06:21.330Z,7.15
2023-03-25T19:08:50.696Z,7.14
2023-03-25T19:11:22.216Z,7.21
2023-03-25T19:13:53.242Z,7.07
2023-03-25T19:16:22.611Z,7.05
2023-03-25T19:18:51.878Z,7.07
2023-03-25T19:21:21.926Z,7.12
2023-03-25T19:23:52.479Z,6.98
2023-03-25T19:26:21.561Z,7.17
2023-03-25T19:28:53.264Z,7.10
2023-03-25T19:31:24.686Z,7.15
2023-03-25T19:33:53.214Z,7.23
2023-03-25T19:36:24.412Z,7.15
2023-03-25T19:38:56.723Z,7.34
2023-03-25T19:41:26.907Z,7.35
2023-03-25T19:43:57.423Z,7.40
2023-03-25T19:46:26.474Z,7.55
2023-03-25T19:48:55.814Z,7.51
2023-03-25T19:51:24.643Z,7.73
2023-03-25T19:53:55.054Z,7.74
2023-03-25T19:56:24.502Z,7.72
2023-03-25T19:58:54.260Z,7.77
2023-03-25T20:01:25.251Z,7.97
2023-03-25T20:03:53.964Z,8.21
2023-03-25T20:06:22.988Z,8.35
2023-03-25T20:08:51.798Z,8.24
2023-03-25T20:11:21.127Z,8.38
2023-03-25T20:13:50.948Z,8.50
2023-03-25T20:16:20.971Z,8.69
2023-03-25T20:18:52.603Z,8.84
2023-03-25T20:21:23.462Z,8.70
2023-03-25T20:23:52.835Z,8.48
2023-03-25T20:26:21.745Z,8.41
2023-03-25T20:28:51.513Z,8.21
2023-03-25T20:31:22.188Z,8.30
2023-03-25T20:33:53.401Z,8.30
2023-03-25T20:36:23.253Z,8.25
2023-03-25T20:38:57.504Z,8.31
2023-03-25T20:41:27.182Z,8.24
2023-03-25T20:43:55.907Z,8.24
2023-03-25T20:46:28.895Z,8.23
2023-03-25T20:48:59.682Z,8.15
2023-03-25T20:51:28.495Z,8.08
2023-03-25T20:53:59.436Z,8.07
2023-03-25T20:56:28.476Z,8.08
2023-03-25T20:58:57.186Z,7.94
2023-03-25T21:01:26.441Z,7.91
2023-03-25T21:03:55.546Z,7.71
2023-03-25T21:06:28.486Z,7.61
2023-03-25T21:08:59.522Z,7.50
2023-03-25T21:11:34.287Z,7.51
2023-03-25T21:14:03.138Z,7.35
2023-03-25T21:16:32.629Z,7.25
2023-03-25T21:19:03.080Z,7.23
2023-03-25T21:21:34.589Z,7.23
2023-03-25T21:24:04.238Z,7.12
2023-03-25T21:26:32.799Z,7.07
2023-03-25T21:29:01.797Z,7.03
2023-03-25T21:31:31.717Z,6.86
2023-03-25T21:34:00.804Z,6.77
2023-03-25T21:36:32.696Z,6.63
2023-03-25T21:39:04.707Z,6.62
2023-03-25T21:41:33.645Z,6.60
2023-03-25T21:44:02.817Z,6.54
2023-03-25T21:46:34.492Z,6.45
2023-03-25T21:49:04.815Z,6.39
2023-03-25T21:51:36.095Z,6.37
2023-03-25T21:54:06.693Z,6.31
2023-03-25T21:56:35.435Z,6.32
2023-03-25T21:59:05.078Z,6.34
2023-03-25T22:01:33.779Z,6.25
2023-03-25T22:04:05.086Z,6.29
2023-03-25T22:06:35.987Z,6.23
2023-03-25T22:09:08.271Z,6.24
2023-03-25T22:11:38.712Z,6.24
2023-03-25T22:14:09.962Z,6.09
2023-03-25T22:16:39.098Z,6.08
2023-03-25T22:19:09.069Z,6.05
2023-03-25T22:21:38.935Z,6.09
2023-03-25T22:24:11.749Z,6.18
2023-03-25T22:26:43.482Z,6.13
2023-03-25T22:29:13.838Z,6.12
2023-03-25T22:31:43.841Z,6.19
2023-03-25T22:34:19.108Z,6.21
2023-03-25T22:36:53.476Z,6.19
2023-03-25T22:39:25.973Z,6.07
2023-03-25T22:41:56.252Z,6.21
2023-03-25T22:44:26.370Z,6.32
2023-03-25T22:46:56.014Z,6.38
2023-03-25T22:49:25.458Z,6.47
2023-03-25T22:51:54.370Z,6.46
2023-03-25T22:54:25.672Z,6.49
2023-03-25T22:56:55.400Z,6.59
2023-03-25T22:59:23.979Z,6.64
2023-03-25T23:01:54.156Z,6.78
2023-03-25T23:04:23.580Z,6.72
2023-03-25T23:07:00.934Z,6.63
2023-03-25T23:09:45.406Z,6.58
2023-03-25T23:12:15.896Z,6.51
2023-03-25T23:14:49.760Z,6.32
2023-03-25T23:17:18.869Z,6.20
2023-03-25T23:19:48.365Z,6.13
2023-03-25T23:22:22.260Z,6.06
2023-03-25T23:24:52.164Z,6.02
2023-03-25T23:27:21.177Z,6.02
2023-03-25T23:29:50.388Z,6.04
2023-03-25T23:32:19.250Z,6.06
2023-03-25T23:34:47.578Z,6.26
2023-03-25T23:37:16.236Z,6.28
2023-03-25T23:39:46.658Z,6.36
2023-03-25T23:42:16.961Z,6.47
2023-03-25T23:44:45.898Z,6.53
2023-03-25T23:47:15.287Z,6.61
2023-03-25T23:49:44.393Z,6.56
2023-03-25T23:52:14.506Z,6.57
2023-03-25T23:54:43.613Z,6.60
2023-03-25T23:57:14.862Z,6.60
2023-03-25T23:59:47.253Z,6.61
